createdAt,value
2017-12-23T00:01:11.400Z,52.23
2017-12-23T00:03:41.213Z,42.10
2017-12-23T00:06:10.904Z,50.83
2017-12-23T00:08:40.162Z,48.37
2017-12-23T00:11:09.563Z,57.70
2017-12-23T00:13:38.578Z,63.77
2017-12-23T00:16:09.305Z,45.33
2017-12-23T00:18:38.365Z,44.67
2017-12-23T00:21:07.820Z,44.67
2017-12-23T00:23:36.869Z,61.73
2017-12-23T00:26:06.692Z,70.43
2017-12-23T00:28:35.685Z,42.77
2017-12-23T00:31:04.803Z,50.50
2017-12-23T00:33:33.836Z,48.00
2017-12-23T00:36:02.821Z,42.07
2017-12-23T00:38:31.833Z,54.43
2017-12-23T00:41:00.894Z,85.77
2017-12-23T00:43:29.926Z,62.93
2017-12-23T00:45:59.707Z,59.10
2017-12-23T00:48:29.539Z,37.17
2017-12-23T00:50:58.966Z,43.93
2017-12-23T00:53:28.358Z,37.47
2017-12-23T00:55:58.141Z,43.37
2017-12-23T00:58:27.993Z,39.60
2017-12-23T01:00:57.000Z,41.63
2017-12-23T01:03:26.841Z,55.23
2017-12-23T01:05:56.000Z,57.47
2017-12-23T01:08:24.979Z,59.93
2017-12-23T01:10:54.090Z,45.73
2017-12-23T01:13:23.868Z,46.13
2017-12-23T01:15:53.099Z,48.93
2017-12-23T01:18:24.119Z,46.73
2017-12-23T01:20:53.594Z,53.30
2017-12-23T01:23:22.999Z,37.43
2017-12-23T01:25:52.026Z,45.03
2017-12-23T01:28:21.038Z,39.93
2017-12-23T01:30:50.820Z,52.37
2017-12-23T01:33:19.990Z,49.07
2017-12-23T01:35:49.775Z,47.50
2017-12-23T01:38:18.954Z,48.90
2017-12-23T01:40:48.716Z,45.33
2017-12-23T01:43:18.783Z,56.43
2017-12-23T01:45:48.551Z,57.90
2017-12-23T01:48:30.864Z,66.20
2017-12-23T01:51:00.715Z,46.80
2017-12-23T01:53:29.737Z,52.80
2017-12-23T01:55:58.733Z,51.43
2017-12-23T01:58:28.067Z,50.97
2017-12-23T02:00:57.280Z,40.17
2017-12-23T02:03:26.266Z,69.13
2017-12-23T02:05:55.333Z,61.30
2017-12-23T02:08:24.727Z,62.87
2017-12-23T02:10:53.744Z,46.67
2017-12-23T02:13:24.230Z,47.90
2017-12-23T02:15:54.028Z,52.73
2017-12-23T02:18:23.417Z,53.33
2017-12-23T02:20:53.237Z,49.80
2017-12-23T02:23:22.665Z,46.70
2017-12-23T02:25:52.538Z,66.50
2017-12-23T02:28:22.641Z,58.10
2017-12-23T02:30:51.665Z,51.80
2017-12-23T02:33:21.682Z,63.77
2017-12-23T02:35:51.467Z,47.67
2017-12-23T02:38:21.038Z,52.07
2017-12-23T02:40:50.829Z,39.83
2017-12-23T02:43:19.829Z,38.90
2017-12-23T02:45:49.616Z,40.00
2017-12-23T02:48:18.889Z,53.03
2017-12-23T02:50:49.888Z,46.23
2017-12-23T02:53:19.842Z,36.57
2017-12-23T02:55:51.024Z,44.23
2017-12-23T02:58:20.725Z,45.50
2017-12-23T03:00:50.488Z,42.17
2017-12-23T03:03:20.829Z,35.57
2017-12-23T03:05:49.846Z,41.80
2017-12-23T03:08:19.765Z,48.27
2017-12-23T03:10:49.471Z,39.77
2017-12-23T03:13:18.958Z,38.43
2017-12-23T03:15:48.712Z,44.70
2017-12-23T03:18:19.600Z,44.80
2017-12-23T03:20:48.625Z,39.30
2017-12-23T03:23:17.598Z,35.60
2017-12-23T03:25:47.389Z,39.40
2017-12-23T03:28:16.500Z,30.83
2017-12-23T03:30:46.263Z,34.83
2017-12-23T03:33:16.033Z,40.77
2017-12-23T03:35:46.866Z,42.53
2017-12-23T03:38:16.653Z,32.97
2017-12-23T03:40:47.294Z,38.43
2017-12-23T03:43:17.098Z,40.33
2017-12-23T03:45:46.468Z,31.77
2017-12-23T03:48:15.479Z,38.40
2017-12-23T03:50:44.859Z,41.07
2017-12-23T03:53:13.903Z,31.80
2017-12-23T03:55:43.652Z,37.13
2017-12-23T03:58:12.701Z,39.10
2017-12-23T04:00:41.691Z,39.40
2017-12-23T04:03:11.469Z,37.23
2017-12-23T04:05:40.482Z,31.47
2017-12-23T04:08:09.596Z,30.57
2017-12-23T04:10:38.561Z,34.87
2017-12-23T04:13:08.334Z,31.80
2017-12-23T04:15:37.693Z,26.40
2017-12-23T04:18:07.468Z,28.37
2017-12-23T04:20:36.788Z,27.67
2017-12-23T04:23:07.460Z,29.80
2017-12-23T04:25:37.303Z,28.67
2017-12-23T04:28:06.304Z,30.35
2017-12-23T04:30:36.118Z,26.67
2017-12-23T04:33:05.188Z,24.27
2017-12-23T04:35:34.178Z,29.63
2017-12-23T04:38:04.342Z,29.93
2017-12-23T04:40:34.461Z,26.40
2017-12-23T04:43:03.448Z,19.93
2017-12-23T04:48:09.902Z,24.43
2017-12-23T04:50:39.608Z,25.50
2017-12-23T04:53:08.618Z,25.00
2017-12-23T04:55:37.699Z,18.90
2017-12-23T04:58:06.717Z,29.20
2017-12-23T05:00:35.800Z,25.20
2017-12-23T05:03:04.806Z,23.77
2017-12-23T05:05:33.783Z,31.43
2017-12-23T05:08:02.791Z,30.57
2017-12-23T05:10:31.821Z,25.10
2017-12-23T05:13:00.846Z,24.17
2017-12-23T05:15:29.822Z,26.70
2017-12-23T05:17:59.607Z,32.10
2017-12-23T05:20:29.476Z,35.43
2017-12-23T05:22:59.279Z,34.33
2017-12-23T05:25:28.648Z,37.37
2017-12-23T05:27:57.657Z,37.30
2017-12-23T05:30:27.867Z,31.80
2017-12-23T05:32:57.650Z,31.07
2017-12-23T05:35:27.424Z,32.30
2017-12-23T05:37:56.426Z,35.37
2017-12-23T05:40:25.686Z,31.60
2017-12-23T05:42:55.563Z,32.50
2017-12-23T05:45:24.569Z,33.47
2017-12-23T05:47:55.526Z,32.97
2017-12-23T05:50:25.300Z,36.20
2017-12-23T05:52:55.727Z,31.73
2017-12-23T05:55:24.746Z,33.57
2017-12-23T05:57:53.837Z,44.10
2017-12-23T06:00:22.844Z,39.77
2017-12-23T06:02:51.876Z,42.23
2017-12-23T06:05:21.843Z,40.20
2017-12-23T06:07:51.584Z,46.63
2017-12-23T06:10:22.050Z,42.80
2017-12-23T06:12:51.938Z,45.13
2017-12-23T06:15:21.752Z,38.87
2017-12-23T06:17:52.316Z,47.00
2017-12-23T06:20:21.291Z,48.03
2017-12-23T06:22:50.994Z,51.67
2017-12-23T06:25:20.267Z,63.87
2017-12-23T06:27:49.684Z,57.73
2017-12-23T06:30:18.745Z,57.23
2017-12-23T06:32:48.497Z,64.37
2017-12-23T06:35:17.505Z,71.53
2017-12-23T06:37:49.998Z,73.77
2017-12-23T06:40:19.062Z,64.00
2017-12-23T06:42:48.485Z,71.97
2017-12-23T06:45:17.953Z,68.30
2017-12-23T06:47:47.662Z,67.53
2017-12-23T06:50:16.843Z,89.60
2017-12-23T06:52:46.596Z,86.23
2017-12-23T06:55:16.399Z,83.53
2017-12-23T06:57:45.805Z,91.47
2017-12-23T07:00:14.828Z,77.10
2017-12-23T07:02:45.294Z,78.63
2017-12-23T07:05:14.760Z,85.70
2017-12-23T07:07:44.542Z,83.17
2017-12-23T07:10:14.333Z,66.73
2017-12-23T07:12:43.774Z,77.63
2017-12-23T07:15:13.700Z,75.43
2017-12-23T07:17:43.092Z,83.17
2017-12-23T07:20:26.383Z,75.33
2017-12-23T07:22:55.396Z,56.77
2017-12-23T07:25:24.690Z,56.53
2017-12-23T07:27:53.656Z,65.13
2017-12-23T07:30:22.658Z,66.23
2017-12-23T07:32:52.019Z,47.30
2017-12-23T07:35:21.707Z,49.60
2017-12-23T07:37:50.678Z,47.37
2017-12-23T07:40:20.131Z,44.33
2017-12-23T07:42:49.418Z,45.27
2017-12-23T07:45:18.738Z,47.10
2017-12-23T07:48:04.644Z,39.67
2017-12-23T07:50:33.924Z,45.00
2017-12-23T07:53:02.944Z,39.43
2017-12-23T07:55:31.937Z,48.33
2017-12-23T07:58:01.755Z,41.23
2017-12-23T08:00:37.519Z,35.70
2017-12-23T08:03:06.952Z,42.10
2017-12-23T08:05:36.215Z,42.47
2017-12-23T08:08:05.224Z,40.77
2017-12-23T08:10:34.243Z,35.87
2017-12-23T08:13:03.222Z,38.77
2017-12-23T08:15:32.234Z,38.10
2017-12-23T08:18:01.231Z,36.47
2017-12-23T08:20:30.654Z,42.23
2017-12-23T08:23:00.388Z,48.60
2017-12-23T08:25:29.785Z,38.37
2017-12-23T08:28:23.045Z,35.10
2017-12-23T08:30:52.170Z,36.13
2017-12-23T08:33:21.552Z,35.37
2017-12-23T08:35:55.207Z,34.47
2017-12-23T08:38:24.596Z,32.10
2017-12-23T08:40:53.895Z,33.47
2017-12-23T08:43:22.932Z,36.80
2017-12-23T08:45:51.957Z,35.23
2017-12-23T08:48:21.883Z,44.80
2017-12-23T08:50:51.688Z,39.13
2017-12-23T08:53:22.927Z,35.60
2017-12-23T08:55:52.097Z,31.80
2017-12-23T08:58:21.119Z,33.60
2017-12-23T09:00:50.154Z,40.90
2017-12-23T09:03:19.980Z,35.23
2017-12-23T09:05:50.247Z,39.37
2017-12-23T09:08:19.244Z,35.17
2017-12-23T09:10:50.014Z,32.03
2017-12-23T09:13:20.144Z,38.37
2017-12-23T09:15:49.157Z,38.90
2017-12-23T09:18:18.558Z,37.57
2017-12-23T09:20:48.473Z,40.70
2017-12-23T09:23:17.480Z,44.17
2017-12-23T09:26:09.833Z,38.40
2017-12-23T09:28:38.842Z,44.10
2017-12-23T09:31:08.754Z,47.60
2017-12-23T09:36:25.763Z,39.67
2017-12-23T09:38:55.880Z,49.80
2017-12-23T09:41:27.567Z,45.20
2017-12-23T09:43:57.441Z,43.77
2017-12-23T09:46:27.246Z,41.03
2017-12-23T09:48:57.679Z,39.43
2017-12-23T09:51:26.676Z,42.97
2017-12-23T09:53:56.099Z,41.67
2017-12-23T09:56:25.847Z,41.23
2017-12-23T09:58:55.229Z,35.50
2017-12-23T10:01:25.100Z,37.80
2017-12-23T10:03:55.890Z,35.20
2017-12-23T10:06:35.633Z,31.10
2017-12-23T10:09:04.664Z,34.60
2017-12-23T10:11:34.514Z,35.27
2017-12-23T10:14:03.610Z,38.37
2017-12-23T10:16:33.393Z,28.90
2017-12-23T10:19:02.844Z,34.10
2017-12-23T10:21:32.948Z,31.00
2017-12-23T10:24:14.796Z,32.70
2017-12-23T10:26:43.857Z,26.93
2017-12-23T10:29:31.135Z,33.23
2017-12-23T10:32:03.668Z,31.17
2017-12-23T10:37:30.952Z,23.93
2017-12-23T10:39:59.964Z,24.80
2017-12-23T10:42:29.773Z,24.87
2017-12-23T10:44:58.847Z,23.60
2017-12-23T10:47:27.887Z,31.40
2017-12-23T10:49:57.788Z,23.23
2017-12-23T10:52:31.144Z,23.30
2017-12-23T10:55:00.225Z,26.60
2017-12-23T10:57:29.311Z,21.10
2017-12-23T10:59:59.310Z,19.50
2017-12-23T11:02:29.066Z,21.20
2017-12-23T11:04:58.131Z,23.00
2017-12-23T11:07:27.678Z,25.00
2017-12-23T11:09:59.158Z,24.20
2017-12-23T11:12:30.570Z,24.10
2017-12-23T11:14:59.607Z,23.80
2017-12-23T11:17:28.786Z,26.20
2017-12-23T11:19:57.803Z,25.77
2017-12-23T11:22:27.685Z,24.30
2017-12-23T11:24:58.322Z,29.70
2017-12-23T11:27:27.965Z,27.37
2017-12-23T11:29:58.183Z,25.60
2017-12-23T11:32:27.837Z,29.87
2017-12-23T11:34:58.787Z,24.80
2017-12-23T11:37:46.394Z,21.77
2017-12-23T11:40:16.192Z,23.40
2017-12-23T11:42:45.584Z,29.73
2017-12-23T11:45:15.509Z,27.03
2017-12-23T11:47:44.886Z,28.90
2017-12-23T11:50:21.782Z,27.43
2017-12-23T11:55:43.021Z,27.50
2017-12-23T11:58:11.996Z,26.40
2017-12-23T12:00:41.928Z,27.60
2017-12-23T12:03:11.730Z,28.47
2017-12-23T12:05:40.821Z,26.80
2017-12-23T12:08:13.605Z,27.93
2017-12-23T12:10:44.544Z,29.83
2017-12-23T12:13:14.452Z,25.13
2017-12-23T12:15:43.882Z,28.10
2017-12-23T12:18:13.960Z,23.47
2017-12-23T12:20:44.861Z,34.90
2017-12-23T12:23:14.618Z,29.73
2017-12-23T12:25:44.720Z,22.33
2017-12-23T12:28:14.312Z,32.57
2017-12-23T12:30:44.147Z,24.33
2017-12-23T12:33:14.438Z,29.70
2017-12-23T12:35:46.636Z,30.43
2017-12-23T12:38:15.753Z,32.10
2017-12-23T12:40:44.757Z,26.63
2017-12-23T12:43:13.926Z,34.80
2017-12-23T12:46:00.075Z,25.50
2017-12-23T12:48:30.113Z,20.40
2017-12-23T12:51:00.290Z,21.40
2017-12-23T12:53:30.486Z,25.40
2017-12-23T12:56:00.528Z,24.53
2017-12-23T12:58:34.989Z,22.50
2017-12-23T13:03:50.028Z,21.57
2017-12-23T13:06:20.682Z,26.37
2017-12-23T13:08:50.590Z,26.23
2017-12-23T13:11:21.343Z,16.07
2017-12-23T13:13:50.370Z,19.80
2017-12-23T13:16:19.886Z,21.83
2017-12-23T13:18:49.741Z,23.27
2017-12-23T13:21:18.735Z,24.23
2017-12-23T13:23:48.644Z,20.63
2017-12-23T13:26:18.795Z,22.17
2017-12-23T13:29:01.643Z,18.93
2017-12-23T13:31:31.450Z,21.80
2017-12-23T13:34:00.473Z,18.73
2017-12-23T13:36:29.605Z,21.00
2017-12-23T13:39:02.970Z,19.63
2017-12-23T13:41:31.980Z,21.10
2017-12-23T13:46:41.553Z,23.23
2017-12-23T13:49:11.355Z,24.27
2017-12-23T13:51:42.713Z,19.53
2017-12-23T13:54:11.683Z,21.53
2017-12-23T13:56:41.690Z,20.23
2017-12-23T13:59:11.718Z,18.03
2017-12-23T14:01:41.545Z,19.40
2017-12-23T14:04:13.040Z,18.03
2017-12-23T14:06:42.040Z,16.47
2017-12-23T14:09:11.416Z,16.30
2017-12-23T14:11:40.431Z,12.30
2017-12-23T14:14:11.781Z,13.43
2017-12-23T14:16:40.927Z,13.80
2017-12-23T14:19:09.912Z,12.17
2017-12-23T14:24:14.992Z,10.73
2017-12-23T14:26:44.688Z,11.00
2017-12-23T14:29:15.202Z,11.73
2017-12-23T14:31:44.198Z,9.00
2017-12-23T14:34:13.759Z,7.90
2017-12-23T14:36:43.922Z,12.03
2017-12-23T14:39:14.398Z,8.70
2017-12-23T14:41:44.609Z,9.07
2017-12-23T14:44:14.724Z,7.43
2017-12-23T14:46:46.305Z,14.00
2017-12-23T14:49:15.814Z,7.57
2017-12-23T14:51:46.844Z,13.40
2017-12-23T14:57:49.180Z,8.00
2017-12-23T15:00:19.033Z,6.57
2017-12-23T15:02:48.086Z,8.03
2017-12-23T15:05:17.957Z,5.20
2017-12-23T15:07:47.700Z,7.27
2017-12-23T15:10:17.098Z,8.10
2017-12-23T15:12:47.055Z,6.43
2017-12-23T15:15:18.955Z,9.63
2017-12-23T15:17:48.707Z,9.23
2017-12-23T15:20:17.670Z,9.40
2017-12-23T15:22:47.013Z,10.03
2017-12-23T15:25:16.765Z,6.40
2017-12-23T15:27:45.774Z,7.80
2017-12-23T15:30:14.765Z,8.10
2017-12-23T15:32:44.498Z,9.90
2017-12-23T15:35:14.264Z,6.63
2017-12-23T15:37:43.682Z,9.50
2017-12-23T15:40:13.476Z,13.00
2017-12-23T15:42:42.471Z,9.60
2017-12-23T15:45:12.264Z,13.90
2017-12-23T15:47:42.375Z,14.50
2017-12-23T15:50:12.188Z,12.27
2017-12-23T15:52:41.973Z,13.90
2017-12-23T15:55:11.969Z,13.80
2017-12-23T15:57:41.905Z,13.63
2017-12-23T16:00:11.316Z,21.57
2017-12-23T16:02:41.081Z,18.40
2017-12-23T16:05:10.601Z,19.07
2017-12-23T16:07:39.636Z,18.40
2017-12-23T16:10:09.445Z,19.17
2017-12-23T16:12:39.287Z,26.20
2017-12-23T16:15:09.096Z,18.67
2017-12-23T16:17:38.122Z,24.60
2017-12-23T16:20:07.343Z,25.80
2017-12-23T16:22:36.756Z,24.10
2017-12-23T16:25:06.572Z,25.10
2017-12-23T16:27:36.378Z,25.80
2017-12-23T16:30:06.908Z,19.93
2017-12-23T16:32:36.342Z,27.53
2017-12-23T16:35:06.154Z,31.93
2017-12-23T16:37:35.549Z,32.30
2017-12-23T16:40:04.554Z,28.60
2017-12-23T16:42:34.341Z,25.30
2017-12-23T16:45:03.835Z,32.33
2017-12-23T16:47:32.850Z,35.60
2017-12-23T16:50:01.931Z,26.83
2017-12-23T16:52:31.711Z,26.60
2017-12-23T16:55:01.476Z,28.07
2017-12-23T16:57:30.798Z,34.67
2017-12-23T16:59:59.846Z,28.03
2017-12-23T17:02:28.873Z,28.10
2017-12-23T17:04:57.921Z,33.87
2017-12-23T17:07:27.305Z,32.20
2017-12-23T17:09:56.694Z,34.73
2017-12-23T17:12:25.815Z,29.10
2017-12-23T17:14:55.249Z,34.27
2017-12-23T17:17:24.619Z,27.27
2017-12-23T17:19:54.429Z,29.63
2017-12-23T17:22:23.846Z,31.37
2017-12-23T17:24:53.546Z,31.97
2017-12-23T17:27:23.214Z,32.10
2017-12-23T17:30:04.142Z,30.13
2017-12-23T17:32:33.596Z,32.23
2017-12-23T17:35:02.569Z,37.17
2017-12-23T17:37:32.672Z,32.80
2017-12-23T17:40:01.675Z,34.07
2017-12-23T17:42:31.468Z,45.50
2017-12-23T17:45:00.497Z,31.57
2017-12-23T17:47:30.295Z,33.77
2017-12-23T17:49:59.323Z,38.40
2017-12-23T17:52:29.098Z,34.00
2017-12-23T17:54:58.140Z,29.97
2017-12-23T17:57:28.712Z,35.43
2017-12-23T17:59:58.546Z,40.83
2017-12-23T18:02:29.273Z,30.73
2017-12-23T18:04:59.287Z,32.80
2017-12-23T18:07:28.332Z,31.70
2017-12-23T18:09:58.111Z,32.50
2017-12-23T18:12:27.122Z,34.03
2017-12-23T18:14:56.961Z,29.97
2017-12-23T18:17:27.429Z,27.77
2017-12-23T18:19:57.210Z,27.77
2017-12-23T18:22:27.315Z,29.57
2017-12-23T18:24:57.092Z,35.03
2017-12-23T18:27:26.883Z,33.97
2017-12-23T18:29:56.663Z,32.77
2017-12-23T18:32:29.246Z,29.57
2017-12-23T18:34:58.361Z,34.90
2017-12-23T18:37:28.144Z,31.17
2017-12-23T18:39:57.156Z,33.90
2017-12-23T18:42:26.253Z,41.07
2017-12-23T18:44:59.251Z,40.23
2017-12-23T18:50:50.494Z,36.17
2017-12-23T18:53:20.315Z,46.03
2017-12-23T18:55:50.893Z,41.17
2017-12-23T18:58:20.933Z,43.27
2017-12-23T19:00:50.425Z,36.90
2017-12-23T19:03:19.579Z,33.60
2017-12-23T19:08:58.339Z,47.03
2017-12-23T19:11:27.372Z,38.57
2017-12-23T19:19:57.340Z,29.97
2017-12-23T19:22:26.380Z,31.37
2017-12-23T19:24:55.423Z,29.63
2017-12-23T19:27:38.820Z,37.33
2017-12-23T19:33:08.977Z,31.73
2017-12-23T19:35:42.167Z,25.90
2017-12-23T19:38:16.101Z,27.67
2017-12-23T19:43:41.479Z,32.67
2017-12-23T19:46:23.834Z,37.27
2017-12-23T19:52:15.875Z,30.77
2017-12-23T19:54:45.846Z,31.30
2017-12-23T19:57:15.686Z,36.40
2017-12-23T20:02:36.302Z,31.10
2017-12-23T20:05:06.540Z,32.17
2017-12-23T20:07:36.361Z,34.87
2017-12-23T20:10:06.156Z,32.53
2017-12-23T20:12:35.835Z,30.33
2017-12-23T20:15:06.401Z,27.20
2017-12-23T20:17:37.045Z,30.13
2017-12-23T20:20:07.295Z,30.30
2017-12-23T20:22:36.339Z,29.60
2017-12-23T20:25:08.630Z,31.60
2017-12-23T20:27:39.664Z,26.57
2017-12-23T20:30:09.495Z,30.37
2017-12-23T20:32:40.075Z,37.43
2017-12-23T20:35:09.907Z,34.30
2017-12-23T20:37:39.677Z,34.73
2017-12-23T20:40:09.794Z,33.03
2017-12-23T20:42:39.791Z,42.03
2017-12-23T20:45:09.635Z,30.60
2017-12-23T20:47:39.100Z,36.07
2017-12-23T20:50:09.122Z,36.53
2017-12-23T20:52:38.107Z,30.20
2017-12-23T20:55:08.329Z,39.07
2017-12-23T20:57:40.016Z,35.40
2017-12-23T21:00:11.814Z,30.73
2017-12-23T21:02:41.620Z,42.87
2017-12-23T21:05:11.014Z,43.07
2017-12-23T21:07:40.090Z,41.90
2017-12-23T21:10:10.686Z,41.80
2017-12-23T21:12:46.394Z,35.43
2017-12-23T21:18:21.546Z,42.13
2017-12-23T21:20:51.327Z,35.47
2017-12-23T21:23:33.918Z,38.80
2017-12-23T21:26:03.786Z,41.83
2017-12-23T21:28:32.822Z,42.77
2017-12-23T21:31:01.956Z,41.67
2017-12-23T21:33:31.795Z,38.87
2017-12-23T21:42:15.682Z,42.40
2017-12-23T21:44:45.462Z,40.47
2017-12-23T21:47:14.504Z,38.27
2017-12-23T21:49:43.498Z,47.90
2017-12-23T21:52:13.290Z,36.33
2017-12-23T21:54:42.281Z,39.03
2017-12-23T21:57:12.884Z,41.13
2017-12-23T21:59:42.304Z,37.17
2017-12-23T22:02:43.292Z,35.07
2017-12-23T22:05:13.013Z,38.13
2017-12-23T22:07:42.190Z,34.87
2017-12-23T22:10:35.065Z,37.97
2017-12-23T22:13:04.062Z,39.23
2017-12-23T22:15:34.197Z,41.97
2017-12-23T22:21:00.029Z,34.67
2017-12-23T22:23:30.286Z,45.10
2017-12-23T22:26:00.128Z,37.53
2017-12-23T22:28:29.157Z,32.47
2017-12-23T22:30:59.593Z,34.60
2017-12-23T22:36:32.892Z,43.17
2017-12-23T22:39:06.933Z,37.30
2017-12-23T22:41:38.356Z,35.67
2017-12-23T22:44:08.904Z,38.27
2017-12-23T22:46:38.642Z,35.40
2017-12-23T22:52:24.799Z,41.50
2017-12-23T22:54:53.776Z,38.83
2017-12-23T22:57:23.189Z,36.43
2017-12-23T22:59:52.176Z,42.07
2017-12-23T23:05:21.981Z,33.20
2017-12-23T23:07:51.780Z,40.13
2017-12-23T23:13:08.489Z,42.33
2017-12-23T23:15:48.464Z,37.43
2017-12-23T23:18:18.221Z,41.17
2017-12-23T23:20:47.371Z,39.70
2017-12-23T23:23:17.352Z,37.50
2017-12-23T23:25:54.840Z,35.93
2017-12-23T23:28:23.886Z,32.67
2017-12-23T23:30:54.981Z,32.30
2017-12-23T23:33:44.036Z,29.93
2017-12-23T23:36:13.875Z,30.43
2017-12-23T23:38:42.928Z,34.40
2017-12-23T23:41:12.695Z,24.63
2017-12-23T23:46:30.464Z,24.50
2017-12-23T23:48:59.894Z,30.77
2017-12-23T23:51:28.916Z,28.07
2017-12-23T23:53:58.698Z,23.03
2017-12-23T23:56:27.704Z,25.07
2017-12-23T23:59:14.417Z,32.53
